Moore, Texas
Current Conditions -  °F | °C
As of 2:15 PM on Thursday 23 Oct 2014 (Local Time) from KCVB Reporting Station
Clear Clear  
Wind Chill: 82°   Ceiling: Unl
Heat Index: 82°   Visibility: 10mi
Dew Point: 55°   Wind: 0mph
Humidity: 39%   Direction: NA
Pressure: 30.1"   Gusts: NA
Location:  29.06°N, 99.01°W
Report Text: KCVB 231915Z AUTO 00000KT 10SM CLR 28/13 A3010 RMK AO2 T02760126
Loading
Personal Weather Stations






























Interactive Weather Map
Tropical Storm Tracking
New forecast layout! Learn more

10-Day Weather Forecast

Advertisements
Track Severe Weather on mobile